Time;durP1;ratioP1;P1;durP2;ratioP2;P2;SDS_P1;SDS_P2;PMS_P1;PMS_P2;Temp;Humidity;BMP_temperature;BMP_pressure;BME280_temperature;BME280_humidity;BME280_pressure;Samples;Min_cycle;Max_cycle;Signal;HPM_P1;HPM_P2
2022/05/10 00:01:42;;;;;;;8.40;2.93;;;;;;;8.47;100.00;97256.13;10410630;28;20242;-54
2022/05/10 00:06:45;;;;;;;8.83;3.07;;;;;;;8.65;100.00;97252.88;10409681;28;20229;-55
2022/05/10 00:11:46;;;;;;;6.63;3.13;;;;;;;8.77;100.00;97261.47;10409096;28;20659;-58
2022/05/10 00:16:51;;;;;;;6.57;2.97;;;;;;;8.79;100.00;97247.31;10410031;28;20228;-57
2022/05/10 00:21:51;;;;;;;5.67;3.20;;;;;;;8.73;100.00;97248.66;10410094;28;20251;-58
2022/05/10 00:26:53;;;;;;;10.73;3.83;;;;;;;8.67;100.00;97254.41;10410251;28;20204;-53
2022/05/10 00:31:54;;;;;;;6.37;3.07;;;;;;;8.69;100.00;97249.88;10410158;28;20192;-54
2022/05/10 00:36:55;;;;;;;7.60;3.50;;;;;;;8.76;100.00;97234.53;10408906;28;20225;-56
2022/05/10 00:42:01;;;;;;;9.47;3.13;;;;;;;8.80;100.00;97233.28;10408402;28;20276;-56
2022/05/10 00:47:08;;;;;;;10.90;3.47;;;;;;;9.10;100.00;97234.22;10409412;28;20227;-56
2022/05/10 00:52:13;;;;;;;6.30;3.53;;;;;;;9.14;100.00;97230.34;10407980;28;20220;-57
2022/05/10 00:57:29;;;;;;;5.40;3.50;;;;;;;9.35;100.00;97214.56;10407948;28;20224;-58
2022/05/10 01:03:13;;;;;;;11.10;3.60;;;;;;;9.07;100.00;97221.41;10407641;28;20701;-59
2022/05/10 01:08:24;;;;;;;10.23;4.70;;;;;;;9.26;100.00;97218.84;10395660;28;20759;-59
2022/05/10 01:13:28;;;;;;;11.03;4.00;;;;;;;9.40;100.00;97219.38;10406696;28;20314;-58
2022/05/10 01:18:29;;;;;;;9.53;3.57;;;;;;;9.54;98.84;97211.13;10421516;22;20237;-55
2022/05/10 01:23:48;;;;;;;7.20;3.47;;;;;;;9.64;97.25;97209.31;10366612;28;20193;-52
2022/05/10 01:28:52;;;;;;;11.00;3.80;;;;;;;9.67;97.30;97203.00;10349215;28;20555;-52
2022/05/10 01:34:04;;;;;;;8.07;3.37;;;;;;;9.73;95.44;97191.16;10349108;28;20226;-54
2022/05/10 01:39:18;;;;;;;8.63;3.57;;;;;;;9.70;95.11;97192.25;10349056;28;20235;-50
2022/05/10 01:44:33;;;;;;;7.20;3.43;;;;;;;9.81;93.83;97191.28;10366772;28;20193;-53
2022/05/10 01:50:18;;;;;;;10.47;4.60;;;;;;;9.67;94.79;97189.09;10366426;28;20319;-52
2022/05/10 01:55:26;;;;;;;7.10;3.90;;;;;;;9.82;93.93;97185.09;10185247;29;20224;-49
2022/05/10 02:00:27;;;;;;;6.07;3.30;;;;;;;9.89;92.50;97180.97;10335216;28;20221;-52
2022/05/10 02:05:49;;;;;;;7.27;3.40;;;;;;;9.88;92.06;97176.69;10349223;28;20186;-51
2022/05/10 02:10:51;;;;;;;8.17;3.77;;;;;;;9.84;92.16;97171.88;10373583;28;20220;-53
2022/05/10 02:16:01;;;;;;;9.43;3.67;;;;;;;10.14;90.60;97170.84;10373390;28;20312;-56
2022/05/10 02:21:10;;;;;;;7.33;4.10;;;;;;;10.28;89.42;97165.13;10373094;28;20366;-52
2022/05/10 02:26:12;;;;;;;10.20;3.53;;;;;;;10.33;89.15;97160.31;10355558;28;20721;-51
2022/05/10 02:31:21;;;;;;;8.50;3.70;;;;;;;10.38;88.79;97159.06;10372800;28;20213;-54
2022/05/10 02:36:21;;;;;;;9.73;3.70;;;;;;;10.38;88.21;97157.25;10355314;28;20283;-57
2022/05/10 02:41:22;;;;;;;13.77;3.83;;;;;;;10.29;88.90;97151.09;10372320;28;20300;-56
2022/05/10 02:46:24;;;;;;;8.97;3.73;;;;;;;10.24;89.50;97157.72;10372242;28;20193;-53
2022/05/10 02:51:24;;;;;;;9.93;3.87;;;;;;;10.18;89.43;97153.88;10372111;28;20773;-57
2022/05/10 02:56:27;;;;;;;12.23;4.20;;;;;;;10.15;90.41;97152.38;10371387;28;20227;-54
2022/05/10 03:01:35;;;;;;;9.47;3.97;;;;;;;10.29;89.70;97145.84;10371561;28;20583;-56
2022/05/10 03:06:36;;;;;;;5.57;3.67;;;;;;;10.34;88.97;97141.03;10333293;28;20208;-51
2022/05/10 03:11:36;;;;;;;7.67;3.30;;;;;;;10.41;89.18;97132.59;10330777;28;20254;-56
2022/05/10 03:16:37;;;;;;;10.07;4.07;;;;;;;10.26;89.75;97142.66;10330493;28;20241;-54
2022/05/10 03:21:39;;;;;;;9.37;3.53;;;;;;;10.16;91.26;97135.69;10330140;28;20241;-54
2022/05/10 03:26:44;;;;;;;5.77;3.77;;;;;;;10.05;92.35;97158.59;10330473;28;20201;-55
2022/05/10 03:31:45;;;;;;;11.03;3.50;;;;;;;10.08;93.24;97145.25;10329870;28;20218;-54
2022/05/10 03:36:45;;;;;;;11.47;4.27;;;;;;;10.12;93.02;97144.81;10329687;28;20244;-59
2022/05/10 03:41:46;;;;;;;7.87;3.50;;;;;;;10.18;93.52;97149.47;10329715;28;20254;-52
2022/05/10 03:46:46;;;;;;;6.47;3.30;;;;;;;10.11;94.18;97152.81;10329194;28;20248;-52
2022/05/10 03:51:46;;;;;;;4.80;3.37;;;;;;;10.12;94.94;97154.44;10329388;28;20241;-55
2022/05/10 03:56:47;;;;;;;6.93;3.40;;;;;;;10.29;94.71;97156.31;10328467;28;20214;-53
2022/05/10 04:01:47;;;;;;;5.97;3.70;;;;;;;10.48;93.90;97142.34;10328929;28;20217;-56
2022/05/10 04:06:52;;;;;;;8.27;3.60;;;;;;;10.58;93.53;97146.69;10328724;28;20190;-57
2022/05/10 04:11:52;;;;;;;8.73;3.40;;;;;;;10.68;93.15;97140.44;10328299;28;20218;-53
2022/05/10 04:16:53;;;;;;;9.80;3.87;;;;;;;10.68;93.36;97145.69;10328432;28;20280;-52
2022/05/10 04:21:53;;;;;;;5.93;3.50;;;;;;;10.82;93.18;97136.50;10327622;28;20237;-56
2022/05/10 04:26:53;;;;;;;5.57;3.40;;;;;;;11.01;91.66;97127.69;10327927;28;20190;-55
2022/05/10 04:31:54;;;;;;;9.60;3.20;;;;;;;11.07;91.58;97128.88;10326953;28;20225;-55
2022/05/10 04:36:54;;;;;;;6.33;3.17;;;;;;;11.39;90.04;97128.38;10327979;28;20257;-55
2022/05/10 04:41:55;;;;;;;8.67;3.10;;;;;;;11.73;88.69;97114.53;10327826;28;20214;-54
2022/05/10 04:46:55;;;;;;;9.00;3.07;;;;;;;12.07;87.63;97108.50;10327552;28;20194;-53
2022/05/10 04:51:55;;;;;;;10.23;3.13;;;;;;;12.42;85.67;97109.34;10327440;28;20249;-56
2022/05/10 04:56:56;;;;;;;6.57;3.10;;;;;;;12.73;84.04;97108.78;10324851;28;20228;-51
2022/05/10 05:01:56;;;;;;;6.85;3.33;;;;;;;13.07;82.16;97099.16;10326869;28;20249;-55
2022/05/10 05:06:57;;;;;;;8.55;3.20;;;;;;;13.33;81.78;97093.75;10299799;28;20182;-54
2022/05/10 05:11:57;;;;;;;4.93;3.15;;;;;;;13.56;80.89;97091.28;10328776;28;20578;-53
2022/05/10 05:16:59;;;;;;;6.40;3.70;;;;;;;13.89;80.53;97096.53;10325996;28;20221;-51
2022/05/10 05:21:59;;;;;;;10.48;3.40;;;;;;;14.16;79.07;97076.84;10325063;28;20237;-55
2022/05/10 05:27:00;;;;;;;8.38;3.15;;;;;;;14.15;79.35;97088.38;10322248;28;20225;-55
2022/05/10 05:32:08;;;;;;;14.43;3.40;;;;;;;14.22;80.02;97097.22;10345382;28;20198;-51
2022/05/10 05:42:28;;;;;;;6.57;3.33;;;;;;;14.89;78.43;97088.06;10329696;28;20189;-54
2022/05/10 05:47:29;;;;;;;7.85;3.13;;;;;;;15.18;78.50;97102.38;10334063;28;20240;-58
2022/05/10 05:52:29;;;;;;;7.95;2.80;;;;;;;15.72;78.09;97096.16;10333773;28;20209;-56
2022/05/10 05:57:30;;;;;;;7.75;3.20;;;;;;;16.05;76.36;97078.19;10333284;28;20275;-56
2022/05/10 06:02:30;;;;;;;5.38;2.80;;;;;;;16.28;73.78;97039.44;10334157;28;20190;-51
2022/05/10 06:07:31;;;;;;;8.75;3.30;;;;;;;17.03;73.31;97048.84;10332960;28;20267;-57
2022/05/10 06:12:31;;;;;;;5.72;2.92;;;;;;;18.16;68.53;96998.50;10326333;28;20687;-57
2022/05/10 06:17:36;;;;;;;13.30;3.10;;;;;;;18.74;66.10;96985.81;10332813;28;20321;-56
2022/05/10 06:22:36;;;;;;;7.70;2.97;;;;;;;19.88;62.34;96934.28;10332500;28;20283;-57
2022/05/10 06:27:39;;;;;;;4.68;3.28;;;;;;;19.24;62.62;96943.81;10332699;28;20677;-60
2022/05/10 06:32:40;;;;;;;4.13;3.22;;;;;;;18.97;62.32;96937.69;10333014;28;20198;-58
2022/05/10 06:43:00;;;;;;;6.22;4.20;;;;;;;18.42;63.77;96959.00;10332813;28;20190;-60
2022/05/10 06:48:02;;;;;;;4.25;3.80;;;;;;;19.38;62.87;96963.19;10331886;28;20293;-56
2022/05/10 06:53:03;;;;;;;6.88;3.65;;;;;;;18.62;62.87;96949.28;10322813;28;20228;-60
2022/05/10 06:58:03;;;;;;;6.03;3.15;;;;;;;19.31;63.70;96975.66;10290641;28;20285;-58
2022/05/10 07:03:09;;;;;;;4.65;3.67;;;;;;;19.28;62.03;96945.03;10292574;28;20186;-59
2022/05/10 07:08:10;;;;;;;5.45;3.70;;;;;;;20.00;59.02;96902.53;10333644;28;20205;-59
2022/05/10 07:13:19;;;;;;;3.50;3.20;;;;;;;20.19;58.86;96897.34;10342887;28;20189;-59
2022/05/10 07:18:19;;;;;;;6.43;3.20;;;;;;;20.98;57.92;96890.66;10338775;28;20240;-61
2022/05/10 07:23:22;;;;;;;4.35;3.30;;;;;;;20.74;58.51;96907.44;10337447;28;20186;-57
2022/05/10 07:28:23;;;;;;;7.13;3.60;;;;;;;20.20;60.89;96952.97;10325328;28;20209;-60
2022/05/10 07:33:24;;;;;;;6.63;3.47;;;;;;;21.79;54.76;96857.84;10327014;28;20217;-61
2022/05/10 07:38:25;;;;;;;7.85;3.47;;;;;;;22.28;53.25;96837.25;10326384;28;20669;-61
2022/05/10 07:43:28;;;;;;;3.83;3.08;;;;;;;23.40;52.09;96841.00;10328003;28;20217;-61
2022/05/10 07:48:28;;;;;;;3.90;3.22;;;;;;;23.43;50.29;96811.09;10340585;28;20586;-61
2022/05/10 07:53:31;;;;;;;3.90;3.22;;;;;;;22.88;53.17;96855.06;10336763;28;20301;-59
2022/05/10 07:58:33;;;;;;;3.65;3.35;;;;;;;23.28;49.49;96784.88;10344652;28;20206;-61
2022/05/10 08:03:34;;;;;;;6.25;3.33;;;;;;;23.21;51.21;96831.47;10330817;28;20194;-59
2022/05/10 08:08:34;;;;;;;4.35;3.10;;;;;;;21.61;53.23;96840.84;10433082;22;20243;-57
2022/05/10 08:13:37;;;;;;;4.07;3.10;;;;;;;22.50;52.49;96855.47;10440198;28;20274;-59
2022/05/10 08:18:39;;;;;;;6.13;3.35;;;;;;;21.51;53.38;96856.53;10423120;28;20307;-59
2022/05/10 08:23:39;;;;;;;7.47;3.63;;;;;;;22.80;51.08;96815.31;10402794;28;20204;-58
2022/05/10 08:28:40;;;;;;;5.93;3.28;;;;;;;24.51;47.58;96785.50;10397958;28;20220;-60
2022/05/10 08:33:42;;;;;;;3.70;3.30;;;;;;;22.63;49.63;96783.13;10406845;28;20279;-60
2022/05/10 08:38:42;;;;;;;5.53;3.33;;;;;;;24.05;47.39;96782.88;10387677;28;20227;-58
2022/05/10 08:44:07;;;;;;;7.35;3.22;;;;;;;24.45;46.53;96759.69;10399468;28;20636;-59
2022/05/10 08:49:31;;;;;;;3.58;3.17;;;;;;;24.13;46.57;96758.38;10401244;28;20275;-58
2022/05/10 08:54:31;;;;;;;3.20;2.60;;;;;;;23.74;47.54;96771.59;10403561;28;20315;-61
2022/05/10 08:59:43;;;;;;;6.72;3.38;;;;;;;23.58;48.55;96807.09;10407140;28;20797;-61
2022/05/10 09:04:59;;;;;;;4.70;3.10;;;;;;;25.70;43.53;96710.13;10405599;28;20659;-61
2022/05/10 09:10:02;;;;;;;5.90;2.70;;;;;;;27.10;41.58;96699.31;10410626;28;20228;-61
2022/05/10 09:15:06;;;;;;;4.07;2.97;;;;;;;24.47;43.31;96662.00;10435463;28;20225;-61
2022/05/10 09:20:09;;;;;;;6.30;2.92;;;;;;;25.54;43.36;96711.84;10398015;28;20204;-61
2022/05/10 09:25:30;;;;;;;4.93;2.90;;;;;;;23.27;46.22;96708.38;10406461;28;20569;-61
2022/05/10 09:30:33;;;;;;;3.75;3.10;;;;;;;24.37;45.64;96737.63;10404760;28;20192;-60
2022/05/10 09:35:49;;;;;;;4.35;2.95;;;;;;;23.98;45.17;96707.25;10406433;28;20220;-59
2022/05/10 09:40:50;;;;;;;6.32;2.90;;;;;;;24.19;44.95;96701.19;10406711;28;20710;-61
2022/05/10 09:46:21;;;;;;;4.47;3.15;;;;;;;25.03;43.80;96718.19;10406338;28;20208;-60
2022/05/10 09:51:35;;;;;;;6.50;3.28;;;;;;;24.07;44.15;96691.63;10411308;28;20201;-59
2022/05/10 09:56:43;;;;;;;7.00;3.30;;;;;;;25.80;44.85;96753.13;10406299;28;20240;-61
2022/05/10 10:01:48;;;;;;;4.25;3.30;;;;;;;26.92;42.11;96708.63;10404552;28;20199;-59
2022/05/10 10:07:13;;;;;;;4.47;2.90;;;;;;;27.02;40.77;96666.47;10404849;28;20287;-61
2022/05/10 10:12:26;;;;;;;3.83;3.03;;;;;;;27.11;39.95;96653.31;10403103;28;21003;-61
2022/05/10 10:17:36;;;;;;;4.72;3.38;;;;;;;27.63;38.87;96624.66;10403991;28;20311;-59
2022/05/10 10:22:47;;;;;;;3.03;2.38;;;;;;;25.32;39.46;96565.19;10404514;28;20192;-60
2022/05/10 10:28:31;;;;;;;3.78;2.22;;;;;;;25.77;37.96;96533.59;10406156;28;20585;-61
2022/05/10 10:33:34;;;;;;;4.75;2.53;;;;;;;26.16;39.01;96573.63;10325491;28;20272;-57
2022/05/10 10:38:55;;;;;;;3.33;2.50;;;;;;;26.56;38.65;96579.44;10385107;28;20236;-62
2022/05/10 10:44:07;;;;;;;3.92;2.85;;;;;;;25.92;41.38;96643.75;10410454;28;20195;-61
2022/05/10 10:49:14;;;;;;;3.55;2.90;;;;;;;27.45;38.89;96620.59;10409703;28;20311;-61
2022/05/10 10:54:21;;;;;;;4.53;2.67;;;;;;;27.48;39.21;96609.31;10416683;28;20220;-60
2022/05/10 10:59:54;;;;;;;4.03;3.00;;;;;;;28.59;37.51;96587.13;10436656;28;20656;-62
2022/05/10 11:05:21;;;;;;;6.28;2.30;;;;;;;29.29;35.99;96567.34;10421259;28;20235;-60
2022/05/10 11:10:49;;;;;;;2.85;2.20;;;;;;;30.78;33.61;96548.88;10388710;28;20210;-60
2022/05/10 11:16:15;;;;;;;3.80;2.45;;;;;;;29.95;32.82;96476.06;10393325;28;20241;-60
2022/05/10 11:21:28;;;;;;;3.25;2.22;;;;;;;26.59;38.41;96552.84;10386816;28;20197;-61
2022/05/10 11:26:57;;;;;;;4.13;2.67;;;;;;;25.15;41.29;96602.00;10409911;28;20216;-61
2022/05/10 11:32:11;;;;;;;5.05;2.88;;;;;;;24.22;44.02;96649.84;10403323;28;20220;-61
2022/05/10 11:37:16;;;;;;;4.72;3.20;;;;;;;23.96;44.26;96659.34;10409423;28;20730;-58
2022/05/10 11:42:33;;;;;;;6.13;3.03;;;;;;;24.53;43.04;96633.38;10411575;28;20304;-60
2022/05/10 11:47:59;;;;;;;4.40;2.88;;;;;;;26.45;40.76;96622.38;10405696;28;20215;-62
2022/05/10 11:53:24;;;;;;;6.88;2.85;;;;;;;26.91;40.77;96635.25;10402842;28;20272;-62
2022/05/10 11:58:26;;;;;;;5.97;2.65;;;;;;;26.22;41.03;96603.97;10401771;28;20251;-61
2022/05/10 12:03:35;;;;;;;9.55;3.17;;;;;;;26.28;41.57;96610.97;10407620;28;20181;-60
2022/05/10 12:08:36;;;;;;;4.30;2.65;;;;;;;26.07;40.09;96565.22;10406842;28;20243;-62
2022/05/10 12:24:29;;;;;;;4.32;2.67;;;;;;;25.44;43.30;96624.03;10406175;28;20766;-60
2022/05/10 12:29:38;;;;;;;4.18;2.63;;;;;;;24.70;43.74;96617.28;10405722;28;20213;-58
2022/05/10 12:34:55;;;;;;;4.85;2.90;;;;;;;26.73;41.22;96603.47;10406412;28;20227;-62
2022/05/10 12:40:08;;;;;;;2.97;2.25;;;;;;;30.05;34.35;96494.88;10407367;28;20262;-61
2022/05/10 12:45:28;;;;;;;2.38;2.15;;;;;;;27.03;37.47;96476.38;10407962;28;20217;-60
2022/05/10 12:50:35;;;;;;;2.67;2.25;;;;;;;29.33;35.23;96475.88;10407616;28;20251;-62
2022/05/10 12:55:38;;;;;;;4.50;2.63;;;;;;;29.64;36.84;96526.88;10406567;28;20224;-61
2022/05/10 13:00:44;;;;;;;2.83;2.20;;;;;;;30.02;33.63;96446.81;10408071;28;20579;-60
2022/05/10 13:06:07;;;;;;;7.18;2.35;;;;;;;30.51;33.09;96419.75;10407049;28;20319;-60
2022/05/10 13:11:07;;;;;;;3.60;2.22;;;;;;;28.18;37.00;96466.00;10406465;28;20227;-60
2022/05/10 13:16:14;;;;;;;3.72;2.63;;;;;;;30.23;32.84;96404.16;10405777;28;20231;-60
2022/05/10 13:21:24;;;;;;;5.57;2.65;;;;;;;31.43;31.37;96385.78;10405834;28;20200;-58
2022/05/10 13:26:25;;;;;;;2.60;2.08;;;;;;;32.53;30.27;96380.63;10407218;28;20205;-60
2022/05/10 13:31:33;;;;;;;2.20;2.00;;;;;;;32.30;30.78;96372.44;10406350;28;20188;-59
2022/05/10 13:36:33;;;;;;;3.55;2.25;;;;;;;27.88;37.14;96400.38;10405313;28;20216;-59
2022/05/10 13:41:36;;;;;;;5.30;2.70;;;;;;;27.02;37.49;96381.47;10406495;28;20220;-59
2022/05/10 13:46:54;;;;;;;3.00;1.92;;;;;;;27.93;36.86;96408.47;10404907;28;20711;-58
2022/05/10 13:51:59;;;;;;;2.60;2.30;;;;;;;25.90;40.85;96463.38;10406179;28;20195;-59
2022/05/10 13:57:15;;;;;;;3.90;2.40;;;;;;;27.95;36.47;96381.25;10409524;28;20232;-61
2022/05/10 14:02:15;;;;;;;3.05;2.10;;;;;;;29.38;34.44;96377.88;10405619;28;20744;-59
2022/05/10 14:07:20;;;;;;;9.32;2.42;;;;;;;27.76;34.64;96294.91;10411871;28;20240;-61
2022/05/10 14:12:27;;;;;;;2.83;2.03;;;;;;;27.44;37.14;96386.81;10435600;22;20209;-63
2022/05/10 14:17:27;;;;;;;4.18;2.20;;;;;;;29.14;34.45;96362.41;10356619;28;20224;-61
2022/05/10 14:22:28;;;;;;;5.80;2.20;;;;;;;25.73;39.15;96366.16;10357210;28;20216;-62
2022/05/10 14:27:30;;;;;;;3.80;2.08;;;;;;;24.18;40.64;96369.50;10368543;28;20263;-62
2022/05/10 14:32:33;;;;;;;2.58;1.92;;;;;;;27.12;36.81;96366.38;10345767;28;20645;-63
2022/05/10 14:37:43;;;;;;;3.05;2.13;;;;;;;24.50;41.73;96399.03;10330506;28;20233;-60
2022/05/10 14:42:57;;;;;;;4.25;2.53;;;;;;;22.40;47.65;96511.66;10369872;28;20213;-62
2022/05/10 14:47:57;;;;;;;3.13;2.83;;;;;;;22.77;46.78;96503.28;10381599;28;20220;-61
2022/05/10 14:53:28;;;;;;;6.55;2.95;;;;;;;23.48;44.94;96465.47;10369449;28;20769;-60
2022/05/10 14:58:37;;;;;;;5.03;2.80;;;;;;;23.77;43.73;96427.91;10365120;28;20217;-61
2022/05/10 15:03:38;;;;;;;4.53;3.00;;;;;;;23.96;43.99;96439.13;10369558;28;20700;-62
2022/05/10 15:08:40;;;;;;;5.20;2.80;;;;;;;23.09;44.32;96431.50;10370822;28;20264;-62
2022/05/10 15:13:40;;;;;;;3.97;2.75;;;;;;;23.78;42.87;96408.94;10369512;28;20264;-62
2022/05/10 15:18:59;;;;;;;3.13;2.80;;;;;;;23.99;42.38;96382.44;10370037;28;20725;-61
2022/05/10 15:24:05;;;;;;;4.32;2.50;;;;;;;23.66;43.46;96397.50;10367265;28;20201;-61
2022/05/10 15:29:17;;;;;;;5.97;2.72;;;;;;;23.03;45.08;96428.94;10366749;28;20198;-61
2022/05/10 15:39:37;;;;;;;2.53;2.25;;;;;;;23.77;44.62;96433.25;10369326;28;20193;-61
2022/05/10 15:44:37;;;;;;;5.03;2.60;;;;;;;25.20;42.99;96436.63;10345634;28;20854;-60
2022/05/10 15:49:38;;;;;;;6.68;2.78;;;;;;;24.61;44.93;96461.59;10355185;28;20193;-58
2022/05/10 15:54:38;;;;;;;3.53;2.75;;;;;;;24.50;42.73;96388.31;10344513;28;20229;-58
2022/05/10 15:59:39;;;;;;;10.50;2.83;;;;;;;24.38;43.29;96415.25;10344967;28;20224;-59
2022/05/10 16:04:39;;;;;;;5.68;2.83;;;;;;;23.27;48.56;96518.59;10343270;28;20218;-61
2022/05/10 16:09:39;;;;;;;5.93;2.90;;;;;;;23.05;48.82;96510.47;10325771;28;20201;-61
2022/05/10 16:14:40;;;;;;;7.22;3.10;;;;;;;21.88;50.81;96533.78;10328858;28;20314;-59
2022/05/10 16:19:40;;;;;;;8.00;2.53;;;;;;;22.81;51.27;96571.22;10328591;28;20269;-62
2022/05/10 16:24:41;;;;;;;6.93;3.20;;;;;;;23.02;47.73;96470.88;10327891;28;20209;-61
2022/05/10 16:29:44;;;;;;;2.83;2.63;;;;;;;23.23;49.50;96524.69;10328347;28;20190;-61
2022/05/10 16:34:45;;;;;;;6.68;3.05;;;;;;;22.26;51.89;96549.25;10327672;28;20237;-61
2022/05/10 16:39:46;;;;;;;7.70;2.45;;;;;;;23.09;51.70;96570.44;10327938;28;20194;-58
2022/05/10 16:44:47;;;;;;;6.78;3.13;;;;;;;21.57;55.93;96614.91;10327704;28;20264;-61
2022/05/10 16:49:48;;;;;;;5.82;2.97;;;;;;;21.29;56.07;96597.66;10327860;28;20194;-59
2022/05/10 16:54:48;;;;;;;4.57;2.95;;;;;;;21.47;57.62;96636.75;10337881;28;20295;-59
2022/05/10 16:59:49;;;;;;;8.27;3.10;;;;;;;21.03;60.73;96679.56;10367890;28;20189;-59
2022/05/10 17:04:50;;;;;;;5.28;2.78;;;;;;;21.57;58.86;96629.03;10367877;28;20217;-60
2022/05/10 17:09:51;;;;;;;5.28;3.10;;;;;;;21.53;60.51;96643.88;10360534;28;20562;-60
2022/05/10 17:14:51;;;;;;;5.00;3.00;;;;;;;21.57;62.03;96653.03;10367180;28;20264;-60
2022/05/10 17:19:55;;;;;;;10.65;3.38;;;;;;;20.87;62.05;96622.38;10367271;28;20193;-60
2022/05/10 17:24:56;;;;;;;77.90;49.72;;;;;;;21.22;65.26;96666.22;10366685;28;20296;-61
2022/05/10 17:29:57;;;;;;;7.53;5.35;;;;;;;21.33;65.44;96647.63;10366585;28;20197;-61
2022/05/10 17:34:58;;;;;;;4.50;3.25;;;;;;;20.99;65.70;96636.56;10365898;28;20221;-59
2022/05/10 17:39:59;;;;;;;9.90;3.47;;;;;;;19.63;67.20;96617.84;10379722;28;20232;-59
2022/05/10 17:44:59;;;;;;;7.43;4.43;;;;;;;18.77;70.97;96646.50;10379725;28;20251;-57
2022/05/10 17:50:00;;;;;;;6.50;3.47;;;;;;;18.47;73.42;96646.22;10370963;28;20654;-60
2022/05/10 17:55:01;;;;;;;13.95;4.15;;;;;;;18.36;76.11;96639.69;10357400;28;20751;-61
2022/05/10 18:00:04;;;;;;;7.30;3.72;;;;;;;18.29;74.76;96620.34;10357120;28;20189;-61
2022/05/10 18:05:13;;;;;;;8.15;4.35;;;;;;;18.41;74.06;96616.03;10359416;28;20216;-61
2022/05/10 18:10:14;;;;;;;5.75;4.32;;;;;;;18.58;72.88;96605.75;10359061;28;20568;-61
2022/05/10 18:15:15;;;;;;;5.15;4.22;;;;;;;18.31;75.10;96634.19;10357229;28;20225;-62
2022/05/10 18:20:16;;;;;;;5.50;4.00;;;;;;;18.00;76.59;96641.78;10357602;28;20258;-62
2022/05/10 18:25:16;;;;;;;5.85;4.47;;;;;;;17.84;76.63;96631.59;10358658;28;20624;-61
2022/05/10 18:30:16;;;;;;;7.07;4.32;;;;;;;17.64;76.61;96628.91;10358022;28;20194;-59
2022/05/10 18:35:18;;;;;;;7.55;4.30;;;;;;;17.51;77.57;96634.22;10357472;28;20221;-61
2022/05/10 18:40:20;;;;;;;7.63;4.72;;;;;;;17.28;79.65;96653.94;10358030;28;20190;-60
2022/05/10 18:45:25;;;;;;;7.78;4.53;;;;;;;17.04;79.16;96640.22;10340434;28;20240;-60
2022/05/10 18:50:25;;;;;;;5.47;4.00;;;;;;;16.77;79.44;96642.75;10332886;28;20625;-59
2022/05/10 18:55:27;;;;;;;4.75;4.25;;;;;;;16.69;79.66;96645.56;10331420;28;20221;-61
2022/05/10 19:00:30;;;;;;;9.52;4.28;;;;;;;16.70;80.53;96649.03;10331056;28;20200;-59
2022/05/10 19:05:31;;;;;;;8.63;4.53;;;;;;;16.46;82.11;96652.97;10331067;28;20301;-61
2022/05/10 19:10:32;;;;;;;11.00;4.43;;;;;;;16.53;81.91;96659.13;10330692;28;20679;-59
2022/05/10 19:15:33;;;;;;;4.70;4.18;;;;;;;16.43;81.96;96650.72;10330094;28;20288;-59
2022/05/10 19:20:33;;;;;;;5.53;4.20;;;;;;;16.30;82.15;96657.56;10330575;28;20252;-59
2022/05/10 19:25:33;;;;;;;5.40;4.10;;;;;;;16.19;82.50;96656.28;10329996;28;20296;-60
2022/05/10 19:30:34;;;;;;;8.70;4.85;;;;;;;15.97;83.46;96659.97;10330325;28;20260;-60
2022/05/10 19:35:35;;;;;;;8.13;4.30;;;;;;;15.98;83.74;96658.97;10329007;28;20226;-60
2022/05/10 19:40:35;;;;;;;5.32;4.10;;;;;;;15.86;83.89;96662.16;10329928;28;20190;-60
2022/05/10 19:45:38;;;;;;;7.93;5.18;;;;;;;15.69;84.56;96661.53;10329282;28;20214;-60
2022/05/10 19:50:38;;;;;;;8.85;4.60;;;;;;;15.70;84.37;96660.53;10336885;28;20189;-57
2022/05/10 19:55:39;;;;;;;6.70;4.38;;;;;;;15.63;84.74;96664.94;10346915;28;20220;-59
2022/05/10 20:00:39;;;;;;;5.07;4.22;;;;;;;15.55;84.91;96664.28;10345011;28;20197;-60
2022/05/10 20:05:40;;;;;;;10.73;5.30;;;;;;;15.44;85.18;96662.97;10347031;28;20210;-56
2022/05/10 20:10:44;;;;;;;10.32;4.60;;;;;;;15.39;85.26;96665.31;10367005;28;20272;-60
2022/05/10 20:15:45;;;;;;;8.68;5.05;;;;;;;15.29;84.75;96670.94;10368860;28;20719;-59
2022/05/10 20:20:46;;;;;;;5.93;4.78;;;;;;;15.07;85.73;96670.06;10381687;22;20248;-55
2022/05/10 20:25:48;;;;;;;7.03;4.32;;;;;;;14.98;85.79;96670.19;10371266;28;20201;-54
2022/05/10 20:30:49;;;;;;;7.15;5.00;;;;;;;14.90;86.39;96670.31;10359722;28;20197;-58
2022/05/10 20:35:49;;;;;;;7.13;5.10;;;;;;;14.81;86.81;96666.13;10347485;28;20217;-57
2022/05/10 20:40:49;;;;;;;5.70;5.10;;;;;;;14.65;86.96;96672.41;10348469;28;20213;-59
2022/05/10 20:45:50;;;;;;;5.78;4.72;;;;;;;14.54;87.44;96671.03;10350443;28;20273;-57
2022/05/10 20:50:51;;;;;;;7.63;5.32;;;;;;;14.51;87.38;96666.13;10348393;28;20582;-59
2022/05/10 20:55:51;;;;;;;7.18;4.78;;;;;;;14.34;88.40;96667.31;10350173;28;20224;-59
2022/05/10 21:00:52;;;;;;;6.60;5.00;;;;;;;14.34;88.23;96668.13;10332583;28;20300;-56
2022/05/10 21:05:54;;;;;;;6.68;5.05;;;;;;;14.24;88.50;96657.00;10330021;28;20607;-56
2022/05/10 21:10:57;;;;;;;9.00;5.13;;;;;;;14.20;88.48;96676.84;10329547;28;20210;-60
2022/05/10 21:16:08;;;;;;;7.20;4.90;;;;;;;14.21;88.11;96665.28;10329885;28;20213;-60
2022/05/10 21:21:27;;;;;;;6.57;5.07;;;;;;;14.14;87.88;96665.19;10329573;28;20233;-56
2022/05/10 21:27:06;;;;;;;6.90;5.00;;;;;;;14.21;86.86;96647.69;10329767;28;20198;-59
2022/05/10 21:32:07;;;;;;;12.05;5.50;;;;;;;14.17;86.92;96645.59;10328056;28;20260;-58
2022/05/10 21:37:07;;;;;;;6.82;4.63;;;;;;;14.26;85.65;96640.03;10329560;28;20267;-56
2022/05/10 21:42:08;;;;;;;10.90;6.07;;;;;;;14.26;85.28;96636.59;10328331;28;20295;-60
2022/05/10 21:47:08;;;;;;;8.10;4.90;;;;;;;14.34;84.62;96631.22;10329315;28;20186;-59
2022/05/10 21:52:09;;;;;;;5.63;4.82;;;;;;;14.35;83.95;96632.03;10329416;28;20313;-59
2022/05/10 21:57:09;;;;;;;5.00;4.50;;;;;;;14.40;83.24;96621.78;10329050;28;21006;-56
2022/05/10 22:02:10;;;;;;;5.88;4.50;;;;;;;14.42;83.12;96614.50;10329112;28;20205;-58
2022/05/10 22:07:10;;;;;;;9.18;5.05;;;;;;;14.56;81.60;96621.59;10329521;28;20196;-59
2022/05/10 22:12:10;;;;;;;5.55;4.97;;;;;;;14.62;80.86;96620.88;10325222;28;20225;-58
2022/05/10 22:17:11;;;;;;;5.28;4.45;;;;;;;14.67;80.75;96608.94;10325707;28;20265;-55
2022/05/10 22:22:11;;;;;;;6.78;4.82;;;;;;;14.54;81.64;96607.75;10325234;28;20242;-54
2022/05/10 22:27:11;;;;;;;4.82;4.32;;;;;;;14.78;79.76;96600.56;10333183;28;20264;-59
2022/05/10 22:32:12;;;;;;;5.72;4.28;;;;;;;14.93;78.33;96582.88;10332422;28;20224;-57
2022/05/10 22:37:12;;;;;;;5.78;4.75;;;;;;;14.90;78.54;96588.53;10332649;28;20313;-56
2022/05/10 22:42:13;;;;;;;5.22;4.75;;;;;;;15.06;77.82;96582.19;10332387;28;20214;-55
2022/05/10 22:47:13;;;;;;;6.93;4.57;;;;;;;15.03;78.02;96579.13;10332269;28;20289;-55
2022/05/10 22:52:13;;;;;;;11.77;4.95;;;;;;;14.91;79.24;96589.34;10332301;28;20269;-58
2022/05/10 22:57:14;;;;;;;7.85;5.05;;;;;;;14.86;78.98;96575.91;10331641;28;20210;-58
2022/05/10 23:02:14;;;;;;;7.35;4.95;;;;;;;14.87;79.20;96578.34;10331865;28;20217;-55
2022/05/10 23:07:15;;;;;;;5.50;4.60;;;;;;;14.77;80.32;96580.47;10331491;28;20190;-54
2022/05/10 23:12:15;;;;;;;7.18;4.55;;;;;;;14.81;79.43;96563.28;10331425;28;20301;-55
2022/05/10 23:17:16;;;;;;;6.05;5.22;;;;;;;14.85;79.44;96571.63;10331232;28;20233;-57
2022/05/10 23:22:16;;;;;;;5.75;4.65;;;;;;;14.92;78.59;96565.41;10330706;28;20233;-58
2022/05/10 23:27:17;;;;;;;6.20;5.05;;;;;;;14.93;79.73;96574.13;10330935;28;20198;-58
2022/05/10 23:32:18;;;;;;;6.18;4.88;;;;;;;14.78;81.11;96584.75;10330181;28;20304;-56
2022/05/10 23:37:20;;;;;;;8.45;4.90;;;;;;;14.77;81.06;96573.38;10330300;28;20220;-54
2022/05/10 23:42:20;;;;;;;7.50;4.68;;;;;;;14.80;81.12;96566.91;10330125;28;20233;-53
2022/05/10 23:47:21;;;;;;;5.80;4.82;;;;;;;14.78;81.17;96559.19;10330104;28;20213;-56
2022/05/10 23:52:21;;;;;;;7.55;4.60;;;;;;;14.82;80.93;96551.72;10329791;28;20288;-53
2022/05/10 23:57:21;;;;;;;5.57;4.97;;;;;;;15.05;79.49;96540.97;10329504;28;20230;-55
